createdAt,value
2022-11-28T00:01:36.040Z,22.10
2022-11-28T00:04:04.836Z,21.17
2022-11-28T00:06:32.236Z,18.63
2022-11-28T00:09:00.647Z,17.55
2022-11-28T00:11:28.119Z,13.43
2022-11-28T00:13:57.886Z,15.90
2022-11-28T00:16:25.234Z,10.65
2022-11-28T00:18:54.962Z,11.55
2022-11-28T00:21:22.975Z,9.88
2022-11-28T00:23:51.245Z,9.38
2022-11-28T00:26:27.202Z,10.07
2022-11-28T00:28:55.886Z,11.68
2022-11-28T00:31:25.934Z,12.35
2022-11-28T00:33:56.157Z,10.05
2022-11-28T00:36:23.948Z,10.68
2022-11-28T00:38:53.986Z,8.85
2022-11-28T00:41:27.405Z,8.63
2022-11-28T00:46:23.409Z,6.82
2022-11-28T00:48:52.149Z,8.73
2022-11-28T00:51:24.207Z,8.10
2022-11-28T00:53:53.401Z,8.18
2022-11-28T00:56:27.416Z,8.48
2022-11-28T00:58:55.174Z,9.40
2022-11-28T01:01:27.148Z,9.50
2022-11-28T01:03:56.688Z,11.20
2022-11-28T01:06:36.512Z,11.45
2022-11-28T01:09:07.121Z,10.85
2022-11-28T01:11:35.129Z,12.73
2022-11-28T01:14:02.646Z,14.18
2022-11-28T01:16:29.887Z,14.32
2022-11-28T01:19:00.041Z,17.35
2022-11-28T01:21:27.487Z,15.55
2022-11-28T01:23:54.942Z,15.40
2022-11-28T01:26:25.747Z,15.93
2022-11-28T01:28:57.071Z,14.88
2022-11-28T01:31:26.981Z,12.05
2022-11-28T01:33:54.858Z,11.75
2022-11-28T01:36:22.777Z,14.88
2022-11-28T01:38:50.303Z,12.90
2022-11-28T01:41:20.981Z,12.50
2022-11-28T01:44:05.957Z,15.13
2022-11-28T01:46:34.347Z,17.00
2022-11-28T01:49:33.934Z,15.10
2022-11-28T01:52:06.863Z,14.25
2022-11-28T01:54:37.486Z,13.05
2022-11-28T01:57:14.787Z,11.45
2022-11-28T01:59:49.102Z,11.48
2022-11-28T02:02:25.294Z,10.82
2022-11-28T02:04:53.475Z,12.77
2022-11-28T02:07:21.146Z,11.52
2022-11-28T02:09:48.551Z,13.27
2022-11-28T02:12:40.518Z,16.00
2022-11-28T02:15:26.821Z,13.70
2022-11-28T02:17:59.897Z,11.98
2022-11-28T02:20:30.405Z,11.70
2022-11-28T02:23:12.658Z,13.48
2022-11-28T02:25:52.395Z,13.85
2022-11-28T02:28:41.288Z,14.18
2022-11-28T02:31:38.079Z,14.07
2022-11-28T02:34:12.321Z,13.95
2022-11-28T02:36:50.787Z,14.80
2022-11-28T02:39:31.436Z,13.18
2022-11-28T02:42:20.435Z,13.82
2022-11-28T02:44:56.244Z,14.88
2022-11-28T02:47:37.881Z,13.95
2022-11-28T02:50:18.204Z,14.85
2022-11-28T02:53:05.087Z,14.80
2022-11-28T02:55:32.651Z,16.17
2022-11-28T02:58:00.581Z,16.02
2022-11-28T03:03:23.674Z,13.95
2022-11-28T03:06:09.492Z,13.90
2022-11-28T03:09:02.341Z,13.70
2022-11-28T03:12:02.152Z,13.77
2022-11-28T03:14:35.106Z,13.80
2022-11-28T03:17:11.684Z,12.82
2022-11-28T03:19:48.142Z,12.85
2022-11-28T03:22:53.660Z,12.32
2022-11-28T03:25:25.630Z,13.23
2022-11-28T03:28:02.444Z,12.40
2022-11-28T03:30:39.377Z,13.77
2022-11-28T03:33:08.523Z,13.00
2022-11-28T03:35:46.110Z,12.90
2022-11-28T03:38:20.283Z,11.60
2022-11-28T03:40:54.622Z,12.48
2022-11-28T03:43:30.817Z,13.77
2022-11-28T03:46:06.158Z,14.52
2022-11-28T03:48:44.335Z,13.82
2022-11-28T03:51:28.998Z,14.00
2022-11-28T03:54:29.564Z,15.02
2022-11-28T03:57:09.944Z,14.13
2022-11-28T03:59:47.936Z,13.02
2022-11-28T04:02:52.370Z,14.90
2022-11-28T04:05:47.477Z,11.65
2022-11-28T04:08:29.333Z,12.40
2022-11-28T04:11:12.787Z,13.35
2022-11-28T04:14:00.158Z,13.05
2022-11-28T04:16:48.210Z,11.90
2022-11-28T04:19:36.951Z,13.85
2022-11-28T04:22:28.566Z,12.57
2022-11-28T04:25:02.627Z,15.57
2022-11-28T04:27:43.873Z,14.32
2022-11-28T04:30:12.238Z,13.75
2022-11-28T04:32:46.129Z,15.05
2022-11-28T04:35:19.108Z,13.43
2022-11-28T04:37:48.237Z,12.85
2022-11-28T04:40:17.787Z,13.73
2022-11-28T04:42:53.844Z,15.13
2022-11-28T04:45:23.911Z,13.75
2022-11-28T04:47:51.294Z,12.73
2022-11-28T04:50:18.503Z,12.07
2022-11-28T04:53:07.273Z,11.40
2022-11-28T04:55:48.106Z,12.40
2022-11-28T04:58:18.507Z,11.77
2022-11-28T05:00:48.634Z,11.68
2022-11-28T05:03:16.542Z,13.25
2022-11-28T05:05:50.783Z,11.52
2022-11-28T05:08:19.010Z,11.93
2022-11-28T05:10:47.429Z,13.15
2022-11-28T05:13:14.883Z,13.48
2022-11-28T05:15:41.900Z,14.50
2022-11-28T05:18:09.606Z,13.15
2022-11-28T05:20:37.428Z,11.45
2022-11-28T05:23:07.263Z,10.68
2022-11-28T05:25:34.694Z,11.55
2022-11-28T05:28:04.301Z,13.48
2022-11-28T05:30:33.700Z,14.85
2022-11-28T05:33:03.420Z,13.43
2022-11-28T05:35:32.799Z,12.60
2022-11-28T05:38:00.137Z,13.20
2022-11-28T05:40:29.578Z,12.80
2022-11-28T05:42:59.172Z,12.38
2022-11-28T05:45:28.809Z,12.10
2022-11-28T05:47:58.739Z,13.82
2022-11-28T05:50:25.772Z,12.57
2022-11-28T05:52:53.160Z,12.57
2022-11-28T05:55:22.609Z,12.68
2022-11-28T05:57:50.056Z,11.65
2022-11-28T06:00:17.572Z,12.23
2022-11-28T06:02:45.088Z,12.80
2022-11-28T06:05:35.072Z,10.32
2022-11-28T06:08:02.578Z,10.55
2022-11-28T06:10:29.721Z,12.00
2022-11-28T06:12:57.044Z,11.90
2022-11-28T06:15:24.348Z,11.95
2022-11-28T06:17:53.930Z,11.57
2022-11-28T06:20:20.919Z,12.07
2022-11-28T06:22:48.628Z,11.20
2022-11-28T06:25:15.774Z,12.10
2022-11-28T06:27:43.141Z,13.40
2022-11-28T06:30:10.492Z,13.43
2022-11-28T06:32:40.286Z,11.95
2022-11-28T06:35:07.705Z,12.95
2022-11-28T06:37:35.347Z,13.70
2022-11-28T06:40:05.160Z,13.50
2022-11-28T06:42:34.279Z,13.00
2022-11-28T06:45:03.911Z,12.38
2022-11-28T06:47:31.472Z,12.90
2022-11-28T06:50:03.724Z,13.05
2022-11-28T06:52:33.752Z,18.73
2022-11-28T06:55:00.868Z,13.55
2022-11-28T06:57:28.266Z,14.77
2022-11-28T06:59:55.357Z,16.05
2022-11-28T07:02:22.729Z,13.57
2022-11-28T07:04:52.415Z,13.23
2022-11-28T07:07:20.211Z,15.48
2022-11-28T07:09:47.248Z,13.43
2022-11-28T07:12:14.687Z,13.45
2022-11-28T07:14:42.096Z,14.70
2022-11-28T07:17:09.503Z,14.57
2022-11-28T07:19:38.788Z,13.15
2022-11-28T07:22:09.443Z,14.65
2022-11-28T07:24:36.480Z,13.82
2022-11-28T07:27:03.881Z,12.60
2022-11-28T07:29:31.291Z,13.50
2022-11-28T07:31:58.695Z,12.07
2022-11-28T07:34:25.732Z,11.25
2022-11-28T07:36:53.342Z,10.52
2022-11-28T07:39:20.427Z,11.40
2022-11-28T07:41:50.386Z,10.93
2022-11-28T07:44:18.216Z,11.55
2022-11-28T07:46:46.177Z,11.55
2022-11-28T07:49:14.772Z,11.32
2022-11-28T07:51:43.975Z,10.70
2022-11-28T07:54:11.018Z,10.57
2022-11-28T07:57:10.923Z,11.57
2022-11-28T07:59:26.402Z,9.95
2022-11-28T08:01:54.375Z,10.27
2022-11-28T08:04:26.363Z,11.00
2022-11-28T08:06:54.224Z,9.82
2022-11-28T08:09:21.267Z,10.50
2022-11-28T08:11:48.919Z,11.00
2022-11-28T08:14:18.682Z,10.73
2022-11-28T08:16:48.632Z,10.23
2022-11-28T08:19:16.129Z,10.93
2022-11-28T08:21:44.074Z,9.25
2022-11-28T08:24:11.823Z,9.55
2022-11-28T08:26:39.195Z,9.27
2022-11-28T08:29:09.753Z,7.80
2022-11-28T08:31:38.922Z,8.07
2022-11-28T08:34:08.475Z,8.00
2022-11-28T08:36:38.364Z,8.85
2022-11-28T08:41:55.916Z,8.90
2022-11-28T08:44:26.285Z,8.68
2022-11-28T08:46:56.029Z,8.63
2022-11-28T08:49:23.196Z,8.45
2022-11-28T08:51:50.529Z,9.68
2022-11-28T08:54:20.186Z,8.52
2022-11-28T08:56:50.652Z,9.05
2022-11-28T08:59:17.688Z,9.15
2022-11-28T09:01:45.225Z,7.85
2022-11-28T09:04:13.246Z,8.77
2022-11-28T09:06:40.926Z,9.60
2022-11-28T09:09:10.664Z,7.70
2022-11-28T09:11:38.617Z,8.75
2022-11-28T09:14:05.916Z,8.48
2022-11-28T09:16:33.431Z,8.05
2022-11-28T09:19:00.755Z,7.25
2022-11-28T09:21:29.133Z,7.72
2022-11-28T09:23:56.709Z,7.90
2022-11-28T09:26:25.013Z,7.63
2022-11-28T09:28:54.169Z,7.55
2022-11-28T09:31:22.000Z,8.57
2022-11-28T09:33:51.503Z,8.55
2022-11-28T09:36:20.943Z,7.68
2022-11-28T09:38:48.353Z,8.52
2022-11-28T09:41:47.970Z,8.50
2022-11-28T09:44:36.064Z,8.95
2022-11-28T09:47:12.149Z,11.45
2022-11-28T09:49:52.386Z,8.90
2022-11-28T09:52:32.626Z,9.93
2022-11-28T09:55:09.936Z,10.05
2022-11-28T09:57:50.740Z,9.75
2022-11-28T10:00:34.866Z,9.52
2022-11-28T10:03:23.127Z,8.48
2022-11-28T10:06:21.797Z,10.68
2022-11-28T10:09:11.159Z,9.20
2022-11-28T10:12:03.371Z,9.73
2022-11-28T10:14:36.453Z,9.38
2022-11-28T10:17:31.693Z,10.38
2022-11-28T10:20:32.656Z,10.52
2022-11-28T10:23:11.561Z,9.60
2022-11-28T10:25:47.053Z,7.88
2022-11-28T10:28:19.498Z,9.30
2022-11-28T10:30:52.711Z,7.67
2022-11-28T10:33:32.044Z,10.35
2022-11-28T10:36:01.908Z,10.88
2022-11-28T10:38:32.571Z,9.90
2022-11-28T10:41:06.911Z,10.00
2022-11-28T10:44:07.614Z,9.63
2022-11-28T10:46:35.028Z,9.68
2022-11-28T10:49:02.412Z,10.13
2022-11-28T10:51:48.998Z,9.40
2022-11-28T10:54:51.913Z,9.35
2022-11-28T10:57:28.811Z,8.63
2022-11-28T11:00:16.142Z,8.57
2022-11-28T11:02:59.110Z,9.45
2022-11-28T11:05:34.996Z,8.23
2022-11-28T11:08:08.476Z,8.05
2022-11-28T11:10:47.786Z,9.75
2022-11-28T11:13:31.223Z,8.65
2022-11-28T11:16:01.553Z,8.45
2022-11-28T11:18:31.722Z,8.15
2022-11-28T11:21:19.815Z,8.38
2022-11-28T11:24:08.021Z,8.23
2022-11-28T11:26:40.281Z,8.60
2022-11-28T11:29:29.439Z,8.68
2022-11-28T11:31:58.080Z,8.70
2022-11-28T11:34:27.937Z,9.27
2022-11-28T11:37:21.081Z,9.95
2022-11-28T11:39:52.649Z,9.20
2022-11-28T11:42:28.049Z,9.65
2022-11-28T11:45:30.012Z,10.18
2022-11-28T11:47:58.201Z,9.60
2022-11-28T11:50:28.150Z,8.63
2022-11-28T11:53:10.648Z,9.13
2022-11-28T11:55:53.492Z,9.60
2022-11-28T11:58:35.124Z,9.20
2022-11-28T12:01:05.927Z,10.48
2022-11-28T12:03:35.921Z,9.35
2022-11-28T12:06:21.948Z,9.05
2022-11-28T12:09:09.652Z,9.60
2022-11-28T12:14:37.094Z,10.50
2022-11-28T12:20:22.412Z,9.25
2022-11-28T12:23:21.434Z,9.48
2022-11-28T12:26:03.888Z,9.70
2022-11-28T12:29:03.803Z,9.80
2022-11-28T12:31:53.641Z,9.52
2022-11-28T12:34:26.995Z,9.38
2022-11-28T12:37:13.393Z,9.50
2022-11-28T12:39:55.081Z,9.85
2022-11-28T12:42:44.041Z,9.68
2022-11-28T12:45:37.974Z,10.57
2022-11-28T12:48:20.311Z,9.48
2022-11-28T12:50:59.293Z,9.80
2022-11-28T12:53:52.095Z,9.82
2022-11-28T12:56:34.011Z,9.07
2022-11-28T12:59:15.525Z,9.48
2022-11-28T13:02:26.833Z,9.48
2022-11-28T13:05:09.101Z,10.75
2022-11-28T13:07:39.522Z,10.70
2022-11-28T13:10:09.574Z,10.55
2022-11-28T13:13:00.970Z,9.85
2022-11-28T13:15:55.360Z,10.07
2022-11-28T13:18:44.150Z,10.77
2022-11-28T13:21:17.570Z,9.38
2022-11-28T13:24:07.171Z,9.73
2022-11-28T13:26:50.628Z,9.07
2022-11-28T13:29:42.372Z,10.57
2022-11-28T13:32:30.452Z,10.10
2022-11-28T13:35:02.278Z,10.73
2022-11-28T13:40:45.647Z,9.40
2022-11-28T13:43:17.519Z,9.55
2022-11-28T13:45:46.819Z,9.73
2022-11-28T13:51:31.510Z,10.68
2022-11-28T13:54:17.992Z,10.75
2022-11-28T13:56:48.100Z,10.40
2022-11-28T13:59:25.287Z,10.80
2022-11-28T14:01:59.920Z,10.82
2022-11-28T14:04:29.648Z,11.93
2022-11-28T14:07:03.447Z,10.82
2022-11-28T14:09:43.268Z,11.65
2022-11-28T14:12:22.390Z,11.30
2022-11-28T14:15:43.828Z,11.95
2022-11-28T14:18:54.401Z,11.65
2022-11-28T14:21:20.687Z,12.90
2022-11-28T14:24:08.354Z,12.25
2022-11-28T14:26:39.030Z,12.77
2022-11-28T14:29:26.527Z,12.77
2022-11-28T14:32:27.905Z,13.55
2022-11-28T14:34:45.579Z,12.60
2022-11-28T14:37:22.020Z,12.32
2022-11-28T14:39:51.463Z,12.90
2022-11-28T14:42:58.289Z,13.63
2022-11-28T14:45:44.403Z,14.88
2022-11-28T14:48:24.178Z,15.40
2022-11-28T14:51:00.653Z,15.38
2022-11-28T14:53:34.662Z,15.27
2022-11-28T14:56:14.830Z,14.20
2022-11-28T14:58:52.592Z,15.75
2022-11-28T15:01:43.692Z,14.20
2022-11-28T15:04:44.568Z,16.02
2022-11-28T15:07:23.289Z,14.70
2022-11-28T15:09:56.872Z,14.20
2022-11-28T15:12:34.276Z,14.40
2022-11-28T15:15:05.417Z,12.85
2022-11-28T15:17:36.038Z,14.02
2022-11-28T15:20:39.864Z,13.07
2022-11-28T15:23:24.982Z,14.95
2022-11-28T15:25:53.981Z,14.98
2022-11-28T15:28:21.776Z,14.70
2022-11-28T15:30:51.456Z,14.00
2022-11-28T15:33:22.377Z,13.93
2022-11-28T15:35:58.262Z,14.27
2022-11-28T15:38:27.828Z,15.20
2022-11-28T15:40:59.044Z,16.48
2022-11-28T15:43:29.913Z,16.77
2022-11-28T15:46:01.296Z,17.95
2022-11-28T15:48:47.299Z,16.13
2022-11-28T15:51:32.824Z,18.35
2022-11-28T15:54:01.997Z,15.95
2022-11-28T15:56:29.044Z,16.85
2022-11-28T15:58:57.257Z,18.33
2022-11-28T16:01:29.264Z,17.70
2022-11-28T16:04:03.022Z,18.35
2022-11-28T16:06:35.864Z,19.90
2022-11-28T16:09:06.433Z,19.05
2022-11-28T16:11:35.543Z,19.23
2022-11-28T16:14:10.882Z,18.55
2022-11-28T16:16:40.870Z,18.45
2022-11-28T16:19:23.538Z,17.88
2022-11-28T16:21:57.103Z,17.42
2022-11-28T16:24:44.428Z,16.75
2022-11-28T16:27:34.312Z,16.48
2022-11-28T16:30:36.006Z,15.80
2022-11-28T16:33:24.281Z,17.48
2022-11-28T16:35:52.017Z,18.05
2022-11-28T16:38:23.180Z,16.70
2022-11-28T16:40:51.885Z,18.25
2022-11-28T16:43:32.275Z,18.25
2022-11-28T16:46:07.987Z,18.60
2022-11-28T16:48:38.507Z,17.38
2022-11-28T16:51:11.876Z,16.60
2022-11-28T16:53:49.502Z,17.23
2022-11-28T16:56:32.304Z,16.20
2022-11-28T16:59:14.649Z,17.67
2022-11-28T17:01:44.744Z,19.10
2022-11-28T17:04:26.646Z,18.08
2022-11-28T17:06:56.692Z,19.08
2022-11-28T17:09:24.208Z,18.15
2022-11-28T17:12:03.661Z,17.63
2022-11-28T17:14:31.221Z,18.30
2022-11-28T17:17:02.043Z,17.75
2022-11-28T17:19:29.139Z,18.13
2022-11-28T17:21:59.510Z,18.63
2022-11-28T17:24:33.646Z,18.00
2022-11-28T17:27:01.716Z,17.55
2022-11-28T17:29:29.022Z,17.77
2022-11-28T17:31:59.069Z,17.90
2022-11-28T17:34:31.290Z,19.60
2022-11-28T17:37:00.305Z,18.15
2022-11-28T17:39:27.806Z,17.38
2022-11-28T17:41:56.084Z,16.33
2022-11-28T17:44:26.033Z,17.58
2022-11-28T17:46:55.397Z,17.13
2022-11-28T17:49:23.858Z,17.48
2022-11-28T17:51:53.154Z,16.42
2022-11-28T17:54:23.360Z,18.90
2022-11-28T17:56:52.064Z,19.45
2022-11-28T17:59:23.604Z,18.02
2022-11-28T18:01:54.116Z,18.67
2022-11-28T18:04:24.085Z,16.75
2022-11-28T18:06:51.597Z,15.43
2022-11-28T18:09:18.843Z,16.70
2022-11-28T18:11:48.486Z,16.13
2022-11-28T18:14:19.808Z,14.50
2022-11-28T18:16:47.704Z,15.40
2022-11-28T18:19:14.805Z,17.63
2022-11-28T18:21:44.737Z,17.80
2022-11-28T18:24:12.070Z,16.35
2022-11-28T18:26:39.660Z,18.60
2022-11-28T18:29:09.800Z,19.38
2022-11-28T18:31:37.301Z,17.95
2022-11-28T18:34:07.750Z,16.98
2022-11-28T18:36:37.214Z,17.13
2022-11-28T18:39:06.520Z,15.55
2022-11-28T18:41:33.972Z,16.70
2022-11-28T18:44:03.829Z,15.50
2022-11-28T18:46:31.929Z,15.05
2022-11-28T18:48:59.725Z,16.20
2022-11-28T18:51:30.917Z,16.25
2022-11-28T18:53:58.496Z,15.57
2022-11-28T18:56:26.756Z,16.83
2022-11-28T18:58:54.338Z,17.73
2022-11-28T19:01:27.331Z,16.02
2022-11-28T19:03:57.669Z,16.35
2022-11-28T19:06:25.862Z,15.00
2022-11-28T19:08:55.811Z,16.83
2022-11-28T19:11:23.873Z,16.77
2022-11-28T19:13:51.829Z,17.42
2022-11-28T19:16:26.672Z,16.83
2022-11-28T19:18:54.646Z,15.85
2022-11-28T19:21:27.993Z,16.20
2022-11-28T19:24:01.589Z,18.70
2022-11-28T19:26:34.291Z,16.50
2022-11-28T19:29:02.083Z,16.52
2022-11-28T19:31:34.217Z,16.17
2022-11-28T19:34:06.131Z,17.35
2022-11-28T19:36:39.990Z,19.52
2022-11-28T19:39:16.212Z,17.40
2022-11-28T19:41:46.754Z,16.77
2022-11-28T19:44:14.830Z,16.52
2022-11-28T19:46:42.442Z,17.42
2022-11-28T19:49:19.644Z,18.38
2022-11-28T19:51:50.151Z,18.02
2022-11-28T19:54:18.982Z,17.75
2022-11-28T19:56:48.724Z,16.35
2022-11-28T19:59:16.638Z,18.83
2022-11-28T20:01:44.325Z,17.15
2022-11-28T20:04:11.741Z,18.55
2022-11-28T20:06:38.840Z,18.40
2022-11-28T20:09:08.446Z,17.60
2022-11-28T20:11:36.668Z,18.92
2022-11-28T20:14:11.084Z,19.20
2022-11-28T20:16:38.271Z,18.90
2022-11-28T20:19:06.352Z,18.48
2022-11-28T20:21:36.441Z,18.95
2022-11-28T20:24:05.868Z,18.50
2022-11-28T20:26:39.927Z,19.00
2022-11-28T20:29:11.859Z,19.20
2022-11-28T20:31:43.196Z,18.25
2022-11-28T20:34:11.321Z,18.40
2022-11-28T20:36:40.885Z,18.52
2022-11-28T20:39:08.537Z,19.02
2022-11-28T20:41:35.678Z,18.38
2022-11-28T20:44:03.159Z,19.35
2022-11-28T20:46:35.826Z,18.42
2022-11-28T20:49:05.947Z,20.55
2022-11-28T20:51:34.909Z,19.10
2022-11-28T20:54:04.163Z,18.17
2022-11-28T20:56:41.805Z,19.52
2022-11-28T20:59:19.736Z,17.70
2022-11-28T21:01:46.976Z,20.08
2022-11-28T21:04:18.263Z,19.40
2022-11-28T21:06:50.122Z,19.40
2022-11-28T21:09:18.112Z,19.10
2022-11-28T21:11:56.857Z,18.95
2022-11-28T21:14:25.893Z,19.63
2022-11-28T21:16:56.272Z,18.85
2022-11-28T21:19:23.680Z,19.77
2022-11-28T21:21:51.293Z,20.75
2022-11-28T21:24:18.765Z,21.10
2022-11-28T21:26:51.366Z,20.30
2022-11-28T21:29:22.095Z,20.80
2022-11-28T21:31:49.247Z,23.40
2022-11-28T21:34:16.884Z,21.90
2022-11-28T21:36:44.657Z,21.85
2022-11-28T21:39:14.304Z,22.05
2022-11-28T21:41:43.583Z,24.88
2022-11-28T21:44:16.413Z,22.08
2022-11-28T21:46:45.713Z,24.88
2022-11-28T21:49:13.302Z,21.80
2022-11-28T21:51:44.826Z,22.67
2022-11-28T21:54:14.816Z,21.48
2022-11-28T21:56:42.308Z,22.20
2022-11-28T21:59:12.127Z,22.20
2022-11-28T22:01:41.727Z,23.50
2022-11-28T22:04:10.529Z,22.58
2022-11-28T22:06:37.498Z,20.63
2022-11-28T22:09:09.002Z,25.20
2022-11-28T22:11:37.230Z,22.67
2022-11-28T22:14:04.648Z,20.50
2022-11-28T22:16:31.770Z,21.38
2022-11-28T22:19:00.045Z,23.67
2022-11-28T22:24:15.520Z,23.50
2022-11-28T22:26:42.505Z,22.98
2022-11-28T22:29:09.877Z,20.50
2022-11-28T22:31:37.183Z,20.10
2022-11-28T22:34:04.672Z,22.60
2022-11-28T22:36:31.748Z,23.77
2022-11-28T22:38:59.390Z,20.35
2022-11-28T22:41:29.757Z,23.00
2022-11-28T22:43:59.141Z,22.80
2022-11-28T22:46:26.626Z,22.25
2022-11-28T22:48:56.286Z,22.52
2022-11-28T22:51:25.548Z,22.23
2022-11-28T22:53:57.777Z,21.35
2022-11-28T22:56:26.797Z,22.50
2022-11-28T22:58:54.679Z,22.83
2022-11-28T23:01:27.467Z,24.05
2022-11-28T23:03:55.762Z,22.13
2022-11-28T23:06:26.154Z,23.45
2022-11-28T23:08:54.389Z,22.67
2022-11-28T23:11:25.852Z,22.35
2022-11-28T23:13:56.274Z,24.50
2022-11-28T23:16:26.507Z,23.20
2022-11-28T23:18:56.278Z,22.88
2022-11-28T23:21:24.819Z,24.13
2022-11-28T23:23:52.363Z,23.88
2022-11-28T23:26:22.953Z,23.90
2022-11-28T23:28:51.109Z,21.13
2022-11-28T23:31:24.838Z,23.20
2022-11-28T23:33:53.121Z,23.77
2022-11-28T23:36:29.102Z,24.00
2022-11-28T23:38:59.446Z,22.23
2022-11-28T23:41:28.736Z,22.88
2022-11-28T23:43:56.699Z,21.80
2022-11-28T23:46:25.280Z,23.60
2022-11-28T23:48:52.802Z,23.05
2022-11-28T23:51:22.500Z,22.25
2022-11-28T23:53:50.805Z,24.25
2022-11-28T23:56:20.683Z,23.02
2022-11-28T23:58:48.567Z,22.42
